Time;durP1;ratioP1;P1;durP2;ratioP2;P2;SDS_P1;SDS_P2;PMS_P1;PMS_P2;Temp;Humidity;BMP_temperature;BMP_pressure;BME280_temperature;BME280_humidity;BME280_pressure;Samples;Min_cycle;Max_cycle;Signal;HPM_P1;HPM_P2
2022/06/26 00:00:46;;;;;;;4.40;3.57;;;20.40;93.70;;;;;;5043271;28;20328;-75
2022/06/26 00:03:12;;;;;;;3.83;3.47;;;20.40;94.00;;;;;;5043060;28;20099;-75
2022/06/26 00:05:38;;;;;;;4.87;3.03;;;20.30;94.00;;;;;;5043250;28;20021;-75
2022/06/26 00:08:04;;;;;;;3.60;3.30;;;20.30;94.10;;;;;;5044294;28;20070;-75
2022/06/26 00:10:30;;;;;;;3.67;3.38;;;20.20;94.00;;;;;;5044341;28;20025;-75
2022/06/26 00:12:56;;;;;;;6.57;3.30;;;20.20;93.90;;;;;;5044004;28;20091;-75
2022/06/26 00:15:22;;;;;;;3.37;3.07;;;20.10;94.00;;;;;;5059593;28;20044;-75
2022/06/26 00:17:47;;;;;;;4.17;3.30;;;20.10;94.10;;;;;;5044190;28;20017;-75
2022/06/26 00:20:13;;;;;;;3.47;3.17;;;20.10;94.20;;;;;;5042970;28;20025;-75
2022/06/26 00:22:39;;;;;;;4.97;3.17;;;20.00;94.30;;;;;;5043884;28;20041;-75
2022/06/26 00:25:05;;;;;;;6.83;3.60;;;20.00;94.40;;;;;;5043408;28;20021;-75
2022/06/26 00:27:31;;;;;;;5.03;3.35;;;20.00;94.40;;;;;;5042695;28;20033;-75
2022/06/26 00:29:57;;;;;;;4.77;4.10;;;19.90;94.50;;;;;;5043675;28;20033;-75
2022/06/26 00:32:23;;;;;;;3.37;3.07;;;19.90;94.60;;;;;;5043738;28;20324;-75
2022/06/26 00:34:49;;;;;;;3.60;3.30;;;19.80;94.70;;;;;;5043504;28;20052;-76
2022/06/26 00:37:14;;;;;;;4.07;3.67;;;19.80;95.20;;;;;;5043500;28;20040;-75
2022/06/26 00:39:40;;;;;;;6.00;3.63;;;19.80;95.30;;;;;;5043391;28;20025;-75
2022/06/26 00:42:06;;;;;;;6.57;3.30;;;19.80;95.40;;;;;;5041642;28;20032;-75
2022/06/26 00:44:32;;;;;;;4.13;3.73;;;19.80;95.50;;;;;;5041854;28;20040;-75
2022/06/26 00:46:57;;;;;;;4.53;4.07;;;19.80;95.20;;;;;;5025635;28;20342;-75
2022/06/26 00:49:23;;;;;;;3.70;3.40;;;19.80;95.30;;;;;;5043464;28;20021;-75
2022/06/26 00:51:53;;;;;;;6.67;3.60;;;19.80;95.30;;;;;;5042840;28;20029;-76
2022/06/26 00:54:23;;;;;;;4.43;3.88;;;19.70;95.30;;;;;;5038224;28;20034;-75
2022/06/26 00:56:49;;;;;;;4.05;3.70;;;19.60;95.40;;;;;;5039011;28;20088;-75
2022/06/26 00:59:15;;;;;;;4.50;3.73;;;19.60;95.70;;;;;;5023369;28;20048;-76
2022/06/26 01:01:41;;;;;;;5.60;4.20;;;19.60;95.70;;;;;;5022378;28;20236;-75
2022/06/26 01:04:07;;;;;;;5.20;3.50;;;19.60;95.60;;;;;;5022003;28;20029;-76
2022/06/26 01:06:33;;;;;;;5.83;3.50;;;19.50;95.70;;;;;;5022080;28;20056;-76
2022/06/26 01:08:59;;;;;;;4.50;3.63;;;19.50;95.80;;;;;;5021813;28;20057;-76
2022/06/26 01:11:25;;;;;;;6.53;3.80;;;19.50;96.00;;;;;;5022125;28;20080;-76
2022/06/26 01:13:54;;;;;;;3.85;3.50;;;19.60;96.00;;;;;;5021822;28;20037;-76
2022/06/26 01:16:21;;;;;;;3.97;3.35;;;19.50;95.90;;;;;;5022051;28;20026;-76
2022/06/26 01:18:49;;;;;;;7.05;3.55;;;19.50;96.20;;;;;;5021995;28;20086;-76
2022/06/26 01:21:16;;;;;;;3.65;3.35;;;19.50;96.60;;;;;;5038353;28;20025;-76
2022/06/26 01:23:42;;;;;;;;;;;19.50;96.10;;;;;;5028037;28;20225;-76
2022/06/26 01:26:08;;;;;;;4.10;3.70;;;19.50;96.20;;;;;;5042675;28;20143;-75
2022/06/26 01:28:33;;;;;;;4.50;3.30;;;19.40;96.20;;;;;;5042597;28;20084;-76
2022/06/26 01:30:59;;;;;;;4.90;3.57;;;19.40;96.30;;;;;;5041579;28;20029;-75
2022/06/26 01:33:25;;;;;;;4.63;3.97;;;19.40;96.50;;;;;;5041348;28;20037;-76
2022/06/26 01:35:51;;;;;;;4.37;3.63;;;19.40;96.30;;;;;;5041494;28;20023;-76
2022/06/26 01:38:21;;;;;;;3.90;3.50;;;19.40;96.50;;;;;;5069561;23;20055;-79
2022/06/26 01:40:48;;;;;;;3.78;3.47;;;19.40;96.60;;;;;;5043658;28;20021;-77
2022/06/26 01:43:17;;;;;;;4.55;3.20;;;19.30;96.50;;;;;;5029491;28;20312;-76
2022/06/26 01:45:50;;;;;;;4.30;3.90;;;19.30;96.70;;;;;;5025332;28;20033;-76
2022/06/26 01:48:16;;;;;;;7.20;4.25;;;19.30;96.60;;;;;;5025566;28;20025;-77
2022/06/26 01:50:42;;;;;;;5.88;4.03;;;19.30;96.70;;;;;;5024959;28;20110;-77
2022/06/26 01:53:08;;;;;;;4.15;3.75;;;19.20;96.50;;;;;;5024422;28;20048;-77
2022/06/26 01:55:34;;;;;;;3.50;3.20;;;19.20;96.40;;;;;;5040542;28;20045;-77
2022/06/26 01:58:01;;;;;;;5.57;3.40;;;19.10;96.70;;;;;;5008536;28;20089;-77
2022/06/26 02:00:31;;;;;;;4.72;3.28;;;19.10;96.70;;;;;;5024841;28;20235;-77
2022/06/26 02:02:57;;;;;;;6.45;4.13;;;19.10;97.00;;;;;;5024607;28;20025;-77
2022/06/26 02:05:23;;;;;;;4.47;3.88;;;19.00;97.00;;;;;;5024791;28;20036;-77
2022/06/26 02:07:49;;;;;;;6.17;3.63;;;19.00;97.00;;;;;;5024321;28;20037;-77
2022/06/26 02:15:44;;;;;;;4.18;3.60;;;18.90;97.30;;;;;;5042267;28;20059;-77
2022/06/26 02:18:10;;;;;;;6.37;4.07;;;19.00;97.20;;;;;;5042081;28;20033;-77
2022/06/26 02:20:35;;;;;;;3.63;3.13;;;19.00;97.30;;;;;;5042093;28;20051;-77
2022/06/26 02:23:01;;;;;;;5.13;3.23;;;19.00;97.20;;;;;;5040506;28;20289;-77
2022/06/26 02:25:27;;;;;;;3.77;3.23;;;19.00;97.40;;;;;;5042108;28;20030;-77
2022/06/26 02:27:53;;;;;;;5.30;3.90;;;19.00;97.30;;;;;;5040934;28;20096;-78
2022/06/26 02:30:18;;;;;;;3.47;3.17;;;18.90;97.10;;;;;;5041022;28;20052;-77
2022/06/26 02:32:44;;;;;;;5.10;3.87;;;18.90;97.00;;;;;;5024334;28;20036;-76
2022/06/26 02:35:10;;;;;;;4.00;3.60;;;18.90;97.00;;;;;;5040875;28;20036;-77
2022/06/26 02:37:36;;;;;;;4.43;3.70;;;18.90;97.10;;;;;;5037016;28;20026;-77
2022/06/26 02:40:03;;;;;;;5.88;4.55;;;18.80;97.30;;;;;;5021059;28;20026;-77
2022/06/26 02:42:29;;;;;;;3.90;3.53;;;18.70;97.40;;;;;;5021299;28;20022;-76
2022/06/26 02:44:55;;;;;;;4.07;3.60;;;18.70;97.50;;;;;;5020850;28;20026;-78
2022/06/26 02:47:20;;;;;;;4.33;3.70;;;18.70;97.60;;;;;;5021008;28;20311;-78
2022/06/26 02:49:46;;;;;;;4.10;3.70;;;18.70;97.70;;;;;;5020993;28;20032;-77
2022/06/26 02:52:12;;;;;;;5.20;4.50;;;18.70;97.80;;;;;;5020186;28;20068;-77
2022/06/26 02:54:38;;;;;;;4.17;3.50;;;18.70;98.00;;;;;;5021823;28;20057;-77
2022/06/26 02:57:04;;;;;;;3.47;3.13;;;18.60;98.00;;;;;;5022001;28;20022;-77
2022/06/26 02:59:29;;;;;;;3.95;3.33;;;18.60;97.80;;;;;;5021102;28;20049;-77
2022/06/26 03:01:57;;;;;;;4.43;3.57;;;18.60;97.70;;;;;;5021978;28;20036;-80
2022/06/26 03:04:23;;;;;;;6.03;3.65;;;18.60;97.70;;;;;;5021346;28;20026;-78
2022/06/26 03:06:49;;;;;;;4.20;3.33;;;18.60;97.80;;;;;;5023509;28;20097;-77
2022/06/26 03:09:15;;;;;;;5.67;3.53;;;18.60;97.90;;;;;;5024575;28;20459;-77
2022/06/26 03:11:41;;;;;;;3.90;3.50;;;18.60;97.80;;;;;;5024449;28;20064;-76
2022/06/26 03:14:08;;;;;;;4.63;3.97;;;18.60;97.70;;;;;;5025497;28;20022;-78
2022/06/26 03:16:34;;;;;;;4.40;3.80;;;18.60;97.80;;;;;;5024702;28;20452;-77
2022/06/26 03:18:59;;;;;;;3.83;3.40;;;18.60;97.70;;;;;;5024568;28;20022;-78
2022/06/26 03:21:25;;;;;;;4.43;3.40;;;18.60;97.70;;;;;;5024560;28;20101;-77
2022/06/26 03:24:03;;;;;;;4.70;3.65;;;18.50;97.60;;;;;;5024717;28;20337;-77
2022/06/26 03:26:33;;;;;;;3.58;3.25;;;18.50;97.70;;;;;;5029257;28;20332;-78
2022/06/26 03:28:59;;;;;;;4.68;3.33;;;18.50;97.70;;;;;;5028295;28;20025;-78
2022/06/26 03:31:25;;;;;;;3.47;3.13;;;18.50;97.90;;;;;;5011440;28;20321;-77
2022/06/26 03:33:51;;;;;;;5.33;3.17;;;18.40;97.90;;;;;;5027872;28;20029;-77
2022/06/26 03:36:17;;;;;;;5.47;4.40;;;18.50;97.90;;;;;;5044663;28;20279;-76
2022/06/26 03:38:43;;;;;;;4.28;3.80;;;18.40;97.80;;;;;;5046303;28;20386;-77
2022/06/26 03:41:10;;;;;;;4.40;4.00;;;18.40;98.00;;;;;;5053487;28;20132;-77
2022/06/26 03:43:36;;;;;;;5.78;3.55;;;18.40;97.90;;;;;;5041148;28;20029;-76
2022/06/26 03:46:02;;;;;;;4.23;3.60;;;18.30;98.10;;;;;;5056827;28;20271;-76
2022/06/26 03:48:28;;;;;;;3.60;3.30;;;18.30;98.00;;;;;;5040865;28;20029;-78
2022/06/26 03:50:54;;;;;;;8.43;4.40;;;18.20;98.00;;;;;;5039240;28;20224;-79
2022/06/26 03:53:20;;;;;;;9.17;4.90;;;18.20;98.10;;;;;;5047789;28;20049;-79
2022/06/26 03:55:45;;;;;;;3.90;3.60;;;18.20;98.20;;;;;;5045249;28;20028;-79
2022/06/26 03:58:11;;;;;;;4.97;3.40;;;18.10;98.30;;;;;;5061309;28;20025;-80
2022/06/26 04:00:37;;;;;;;4.53;3.90;;;18.10;98.30;;;;;;5046155;28;20152;-80
2022/06/26 04:03:06;;;;;;;3.77;3.47;;;18.10;98.70;;;;;;5061710;28;20048;-80
2022/06/26 04:05:37;;;;;;;4.18;3.70;;;18.10;98.50;;;;;;5028748;28;20029;-79
2022/06/26 04:08:03;;;;;;;4.80;3.85;;;18.10;98.50;;;;;;5028051;28;20029;-81
2022/06/26 04:10:29;;;;;;;4.78;3.47;;;18.00;98.70;;;;;;5043641;28;20084;-80
2022/06/26 04:12:59;;;;;;;3.43;3.20;;;18.00;98.70;;;;;;5027106;28;20097;-80
2022/06/26 04:15:29;;;;;;;3.65;3.35;;;18.00;98.80;;;;;;5011276;28;20324;-81
2022/06/26 04:17:55;;;;;;;6.40;3.90;;;18.00;98.90;;;;;;5042710;28;20017;-79
2022/06/26 04:20:21;;;;;;;4.20;3.67;;;18.00;99.00;;;;;;5043415;28;20029;-79
2022/06/26 04:23:01;;;;;;;5.38;4.00;;;18.00;99.00;;;;;;5026584;28;20026;-78
2022/06/26 04:25:28;;;;;;;4.68;3.95;;;18.00;99.40;;;;;;5012180;28;20037;-77
2022/06/26 04:27:54;;;;;;;5.88;4.13;;;18.10;99.50;;;;;;5006918;28;20028;-77
2022/06/26 04:30:20;;;;;;;5.75;4.22;;;18.10;99.70;;;;;;5007134;28;20026;-78
2022/06/26 04:32:46;;;;;;;4.20;3.87;;;18.10;99.60;;;;;;5009216;28;20608;-78
2022/06/26 04:35:12;;;;;;;3.90;3.60;;;18.00;99.40;;;;;;5026584;28;20018;-79
2022/06/26 04:37:38;;;;;;;3.72;3.42;;;18.00;99.40;;;;;;5010474;28;20056;-80
2022/06/26 04:40:05;;;;;;;6.17;3.80;;;18.00;99.70;;;;;;5042584;28;20022;-78
2022/06/26 04:42:30;;;;;;;;;;;18.10;99.90;;;;;;5043183;28;20029;-78
2022/06/26 04:44:56;;;;;;;5.25;3.67;;;18.10;99.90;;;;;;5042454;28;19905;-78
2022/06/26 04:47:22;;;;;;;4.23;3.83;;;18.20;99.90;;;;;;5043779;28;20025;-78
2022/06/26 04:49:47;;;;;;;5.27;3.60;;;18.20;99.90;;;;;;5026327;28;20033;-80
2022/06/26 04:52:14;;;;;;;4.23;3.30;;;18.30;99.90;;;;;;5043463;28;20028;-81
2022/06/26 04:54:43;;;;;;;;;;;18.30;99.10;;;;;;5042835;28;20411;-80
2022/06/26 04:57:09;;;;;;;4.05;3.58;;;18.30;99.20;;;;;;5042553;28;19975;-79
2022/06/26 04:59:35;;;;;;;4.70;3.77;;;18.40;99.40;;;;;;5042773;28;20021;-81
2022/06/26 05:02:02;;;;;;;3.90;3.50;;;18.40;99.30;;;;;;5042740;28;20321;-80
2022/06/26 05:04:27;;;;;;;3.55;3.25;;;18.40;99.30;;;;;;5025937;28;20033;-79
2022/06/26 05:06:53;;;;;;;4.13;3.73;;;18.50;99.50;;;;;;5043536;28;20079;-78
2022/06/26 05:09:20;;;;;;;6.63;3.93;;;18.50;99.70;;;;;;5043255;28;20032;-78
2022/06/26 05:11:46;;;;;;;5.03;3.28;;;18.50;98.90;;;;;;5059041;28;20024;-79
2022/06/26 05:14:11;;;;;;;4.00;2.85;;;18.50;98.70;;;;;;5043220;28;20044;-81
2022/06/26 05:16:37;;;;;;;4.47;3.10;;;18.50;98.90;;;;;;5043816;28;20035;-81
2022/06/26 05:19:04;;;;;;;5.70;3.53;;;18.50;98.20;;;;;;5058896;28;20033;-81
2022/06/26 05:21:30;;;;;;;3.97;2.97;;;18.50;98.30;;;;;;5043582;28;20028;-81
2022/06/26 05:23:55;;;;;;;4.23;3.83;;;18.60;98.70;;;;;;5058776;28;20236;-81
2022/06/26 05:26:22;;;;;;;4.50;3.00;;;18.60;98.00;;;;;;5059027;28;20037;-80
2022/06/26 05:28:48;;;;;;;4.60;3.40;;;18.70;97.90;;;;;;5025178;28;20362;-79
2022/06/26 05:31:14;;;;;;;3.80;3.40;;;18.70;97.90;;;;;;5025532;28;20053;-80
2022/06/26 05:33:40;;;;;;;3.57;3.27;;;18.70;97.90;;;;;;5041327;28;20099;-78
2022/06/26 05:36:09;;;;;;;3.57;3.20;;;18.80;98.00;;;;;;5042067;28;20017;-78
2022/06/26 05:38:38;;;;;;;3.58;3.10;;;18.90;98.00;;;;;;5041481;28;20045;-78
2022/06/26 05:41:04;;;;;;;4.07;3.13;;;18.90;97.50;;;;;;5026118;28;20254;-78
2022/06/26 05:43:30;;;;;;;3.35;2.78;;;19.00;97.50;;;;;;5011499;28;20025;-81
2022/06/26 05:45:56;;;;;;;3.13;2.83;;;19.10;97.40;;;;;;5009728;28;20384;-79
2022/06/26 05:48:21;;;;;;;3.10;2.80;;;19.10;97.30;;;;;;5025880;28;20085;-80
2022/06/26 05:50:47;;;;;;;3.73;2.90;;;19.20;97.20;;;;;;5039420;28;20579;-79
2022/06/26 05:53:13;;;;;;;4.80;2.87;;;19.30;97.00;;;;;;5024793;28;20590;-79
2022/06/26 05:55:39;;;;;;;2.80;2.60;;;19.40;96.70;;;;;;5025205;28;20139;-79
2022/06/26 05:58:05;;;;;;;4.33;2.77;;;19.40;96.80;;;;;;5042757;28;20036;-79
2022/06/26 06:00:32;;;;;;;;;;;19.50;97.00;;;;;;5009357;28;20052;-79
2022/06/26 06:02:58;;;;;;;3.92;2.53;;;19.50;97.00;;;;;;5042398;28;19955;-78
2022/06/26 06:05:25;;;;;;;4.27;2.43;;;19.60;97.00;;;;;;5012115;28;20109;-78
2022/06/26 06:07:52;;;;;;;3.00;2.63;;;19.70;96.70;;;;;;5029530;28;20021;-77
2022/06/26 06:10:21;;;;;;;3.03;2.65;;;19.80;96.80;;;;;;5013765;28;20034;-78
2022/06/26 06:12:47;;;;;;;2.50;2.30;;;19.90;97.00;;;;;;5038621;28;20052;-80
2022/06/26 06:15:13;;;;;;;;;;;19.90;96.90;;;;;;5007667;28;20096;-81
2022/06/26 06:17:42;;;;;;;2.25;1.98;;;20.00;95.70;;;;;;5025733;28;20168;-81
2022/06/26 06:20:20;;;;;;;2.10;1.90;;;20.10;95.80;;;;;;5014181;28;20041;-81
2022/06/26 06:22:54;;;;;;;3.55;2.00;;;20.20;95.40;;;;;;5017346;28;20037;-80
2022/06/26 06:25:21;;;;;;;2.47;2.03;;;20.30;95.10;;;;;;5022768;28;20022;-79
2022/06/26 06:27:46;;;;;;;1.98;1.88;;;20.40;95.20;;;;;;5022279;28;20029;-79
2022/06/26 06:30:13;;;;;;;2.40;2.13;;;20.40;94.70;;;;;;5005095;28;20038;-78
2022/06/26 06:32:40;;;;;;;2.53;1.90;;;20.50;94.60;;;;;;5021085;28;20085;-80
2022/06/26 06:35:13;;;;;;;4.32;2.00;;;20.60;94.50;;;;;;5028446;28;20029;-79
2022/06/26 06:37:39;;;;;;;3.50;1.95;;;20.60;94.70;;;;;;5040113;28;20035;-79
2022/06/26 06:40:06;;;;;;;3.70;1.70;;;20.60;94.70;;;;;;5032338;28;20029;-80
2022/06/26 06:42:32;;;;;;;2.28;1.80;;;20.70;94.50;;;;;;5031311;28;20036;-81
2022/06/26 06:44:57;;;;;;;1.67;1.57;;;20.80;94.40;;;;;;5030156;28;20033;-82
2022/06/26 06:47:23;;;;;;;1.90;1.67;;;20.80;93.80;;;;;;5034167;28;20041;-81
2022/06/26 06:49:49;;;;;;;3.07;2.03;;;20.90;93.60;;;;;;5026772;28;20026;-81
2022/06/26 06:52:14;;;;;;;4.73;2.30;;;21.00;93.20;;;;;;4993117;28;20045;-80
2022/06/26 06:54:40;;;;;;;2.23;1.70;;;21.10;93.20;;;;;;4993419;28;20032;-80
2022/06/26 06:57:06;;;;;;;6.73;2.50;;;21.10;93.50;;;;;;5045563;28;20025;-81
2022/06/26 06:59:32;;;;;;;1.67;1.58;;;21.10;94.00;;;;;;5045942;28;20025;-82
2022/06/26 07:01:58;;;;;;;2.70;1.90;;;21.20;93.30;;;;;;5029937;28;20037;-82
2022/06/26 07:04:23;;;;;;;3.87;1.90;;;21.20;93.30;;;;;;5029507;28;20021;-82
2022/06/26 07:06:49;;;;;;;2.47;1.73;;;21.30;93.80;;;;;;5030080;28;20031;-82
2022/06/26 07:09:15;;;;;;;2.77;2.10;;;21.40;93.10;;;;;;5062855;28;20024;-81
2022/06/26 07:11:41;;;;;;;2.00;1.63;;;21.40;93.00;;;;;;5045736;28;20280;-80
2022/06/26 07:14:06;;;;;;;2.87;1.70;;;21.50;92.70;;;;;;5061993;28;20028;-81
2022/06/26 07:16:32;;;;;;;2.13;1.60;;;21.50;92.80;;;;;;5045907;28;20032;-81
2022/06/26 07:18:58;;;;;;;2.50;1.70;;;21.60;92.20;;;;;;5045325;28;20021;-82
2022/06/26 07:21:24;;;;;;;2.17;1.80;;;21.70;92.20;;;;;;5045608;28;20021;-81
2022/06/26 07:23:49;;;;;;;1.93;1.70;;;21.80;92.00;;;;;;5045769;28;20048;-81
2022/06/26 07:26:15;;;;;;;4.10;2.30;;;21.80;92.00;;;;;;5046324;28;20025;-81
2022/06/26 07:28:42;;;;;;;5.47;2.10;;;21.90;92.30;;;;;;5045886;28;20268;-82
2022/06/26 07:31:08;;;;;;;4.68;2.25;;;21.90;92.40;;;;;;5028022;28;20456;-82
2022/06/26 07:36:17;;;;;;;2.60;2.20;;;22.10;91.60;;;;;;5044870;28;20386;-79
2022/06/26 07:38:43;;;;;;;3.40;2.00;;;22.20;91.90;;;;;;5044323;28;20124;-79
2022/06/26 07:41:09;;;;;;;4.53;2.20;;;22.20;91.80;;;;;;5045456;28;20025;-79
2022/06/26 07:43:35;;;;;;;1.83;1.73;;;22.30;91.30;;;;;;5045164;28;20029;-80
2022/06/26 07:46:00;;;;;;;2.27;2.07;;;22.30;91.40;;;;;;5044260;28;20204;-79
2022/06/26 07:48:26;;;;;;;2.33;1.90;;;22.40;91.00;;;;;;5049245;28;20280;-79
2022/06/26 07:50:53;;;;;;;3.47;2.03;;;22.40;91.30;;;;;;5032216;28;20285;-79
2022/06/26 07:53:19;;;;;;;4.32;2.40;;;22.40;91.00;;;;;;5046224;28;20025;-79
2022/06/26 07:55:45;;;;;;;2.75;2.13;;;22.50;91.00;;;;;;5029485;28;20017;-79
2022/06/26 07:58:11;;;;;;;2.33;2.00;;;22.60;91.60;;;;;;5062589;28;20021;-78
2022/06/26 08:00:37;;;;;;;3.83;2.00;;;22.60;90.30;;;;;;5027050;28;20040;-78
2022/06/26 08:03:08;;;;;;;4.87;2.00;;;22.70;90.40;;;;;;5040180;28;20128;-78
2022/06/26 08:05:35;;;;;;;3.45;1.67;;;22.70;90.10;;;;;;4992381;28;20041;-78
2022/06/26 08:08:01;;;;;;;3.45;1.60;;;22.80;90.20;;;;;;5007771;28;20026;-78
2022/06/26 08:10:26;;;;;;;4.53;1.73;;;22.80;89.00;;;;;;5007494;28;20030;-78
2022/06/26 08:12:54;;;;;;;4.03;2.10;;;22.90;88.80;;;;;;5007737;28;20111;-76
2022/06/26 08:15:19;;;;;;;1.92;1.73;;;22.90;89.50;;;;;;5007456;28;20022;-78
2022/06/26 08:17:45;;;;;;;2.93;2.10;;;23.00;89.10;;;;;;5024998;28;20085;-78
2022/06/26 08:20:11;;;;;;;1.43;1.33;;;23.00;89.00;;;;;;5028038;28;20037;-78
2022/06/26 08:22:37;;;;;;;2.03;1.50;;;23.10;86.30;;;;;;5066115;28;20026;-78
2022/06/26 08:25:03;;;;;;;2.20;2.00;;;23.10;87.70;;;;;;5045753;28;20044;-79
2022/06/26 08:27:29;;;;;;;1.88;1.55;;;23.20;87.40;;;;;;5044752;28;20031;-79
2022/06/26 08:29:54;;;;;;;1.88;1.77;;;23.30;85.20;;;;;;5042937;28;20049;-77
2022/06/26 08:32:20;;;;;;;1.87;1.67;;;23.40;85.30;;;;;;5023065;28;20026;-77
2022/06/26 08:34:46;;;;;;;4.60;2.30;;;23.50;86.20;;;;;;5031192;28;20021;-76
2022/06/26 08:37:11;;;;;;;2.20;1.90;;;23.60;84.40;;;;;;5030655;28;20026;-77
2022/06/26 08:39:38;;;;;;;3.20;1.70;;;23.60;84.70;;;;;;5043639;28;20287;-77
2022/06/26 08:42:04;;;;;;;4.75;1.90;;;23.70;84.10;;;;;;5039784;28;20214;-77
2022/06/26 08:44:31;;;;;;;2.20;1.60;;;23.80;84.60;;;;;;5023747;28;20076;-77
2022/06/26 08:46:57;;;;;;;3.50;1.70;;;23.90;85.40;;;;;;5023310;28;20041;-78
2022/06/26 08:49:23;;;;;;;3.80;1.47;;;24.00;85.60;;;;;;5022260;28;20044;-78
2022/06/26 08:51:50;;;;;;;;;;;24.00;83.60;;;;;;5036723;28;20284;-78
2022/06/26 08:54:16;;;;;;;4.10;1.60;;;24.10;83.10;;;;;;5039669;28;19905;-79
2022/06/26 08:56:46;;;;;;;1.70;1.60;;;24.10;82.50;;;;;;5063938;28;20040;-77
2022/06/26 08:59:14;;;;;;;2.38;1.58;;;24.20;81.60;;;;;;5034867;28;20029;-77
2022/06/26 09:01:41;;;;;;;2.70;1.60;;;24.30;81.50;;;;;;5032581;28;20024;-77
2022/06/26 09:04:07;;;;;;;1.50;1.40;;;24.40;82.70;;;;;;5045477;28;20232;-75
2022/06/26 09:06:33;;;;;;;1.52;1.42;;;24.40;79.60;;;;;;5048883;28;20036;-75
2022/06/26 09:08:59;;;;;;;2.13;1.70;;;24.40;80.40;;;;;;5037424;28;20037;-76
2022/06/26 09:11:25;;;;;;;1.88;1.63;;;24.40;78.90;;;;;;5055690;28;20036;-75
2022/06/26 09:13:53;;;;;;;1.80;1.45;;;24.40;79.60;;;;;;5066435;28;20035;-75
2022/06/26 09:16:31;;;;;;;1.20;1.10;;;24.40;79.90;;;;;;5049740;28;20094;-75
2022/06/26 09:19:19;;;;;;;1.40;1.17;;;24.50;77.80;;;;;;5024358;28;20076;-75
2022/06/26 09:21:45;;;;;;;;;;;24.50;75.70;;;;;;5026491;28;20025;-76
2022/06/26 09:24:12;;;;;;;3.05;1.30;;;24.60;76.10;;;;;;5024950;28;20133;-75
2022/06/26 09:26:39;;;;;;;2.15;1.50;;;24.60;75.40;;;;;;5025480;28;20040;-75
2022/06/26 09:29:14;;;;;;;1.40;1.30;;;24.70;75.30;;;;;;5021804;28;20021;-76
2022/06/26 09:31:40;;;;;;;1.65;1.30;;;24.80;74.80;;;;;;5005977;28;20041;-75
2022/06/26 09:34:06;;;;;;;2.10;1.90;;;24.80;73.50;;;;;;5005427;28;20320;-75
2022/06/26 09:36:32;;;;;;;1.30;1.20;;;24.80;73.80;;;;;;5023638;28;20033;-75
2022/06/26 09:38:58;;;;;;;2.45;1.40;;;25.00;76.60;;;;;;5025073;28;20036;-76
2022/06/26 09:41:32;;;;;;;2.17;1.47;;;25.00;75.80;;;;;;5005954;28;20030;-76
2022/06/26 09:43:58;;;;;;;1.50;1.40;;;25.00;76.70;;;;;;5012987;28;20342;-76
2022/06/26 09:46:32;;;;;;;2.45;1.58;;;25.00;77.40;;;;;;5022912;28;20329;-78
2022/06/26 09:48:59;;;;;;;1.92;1.27;;;25.10;79.00;;;;;;5011253;28;20103;-79
2022/06/26 09:51:26;;;;;;;1.83;1.20;;;25.10;79.30;;;;;;5026089;28;20096;-82
2022/06/26 09:53:52;;;;;;;3.47;1.48;;;25.10;74.90;;;;;;5058330;28;20254;-82
2022/06/26 09:56:18;;;;;;;1.40;1.23;;;25.20;73.10;;;;;;5035837;28;20033;-81
2022/06/26 09:58:44;;;;;;;2.25;1.10;;;25.10;74.10;;;;;;5033972;28;20021;-81
2022/06/26 10:06:38;;;;;;;2.28;1.00;;;25.20;72.60;;;;;;5028046;28;20044;-78
2022/06/26 10:09:07;;;;;;;1.73;1.50;;;25.30;71.20;;;;;;5024012;28;20032;-79
2022/06/26 10:11:35;;;;;;;2.10;1.48;;;25.40;71.30;;;;;;5061742;28;20034;-79
2022/06/26 10:14:16;;;;;;;1.85;1.10;;;25.30;74.50;;;;;;5044368;28;20025;-79
2022/06/26 10:17:20;;;;;;;1.48;1.15;;;25.50;71.30;;;;;;5036930;28;20040;-77
2022/06/26 10:20:04;;;;;;;2.70;1.02;;;25.60;68.60;;;;;;5062767;28;20024;-74
2022/06/26 10:22:41;;;;;;;1.52;1.08;;;25.60;68.80;;;;;;5035965;28;20026;-74
2022/06/26 10:25:08;;;;;;;;;;;25.60;66.50;;;;;;5025496;28;20071;-74
2022/06/26 10:27:37;;;;;;;1.08;1.05;;;25.70;67.90;;;;;;5057283;28;20104;-74
2022/06/26 10:30:15;;;;;;;1.15;1.10;;;25.70;69.20;;;;;;5010831;28;20120;-74
2022/06/26 10:32:41;;;;;;;2.50;1.27;;;25.90;69.00;;;;;;5021119;28;20041;-74
2022/06/26 10:35:08;;;;;;;0.80;0.80;;;25.90;70.70;;;;;;5038426;28;20328;-74
2022/06/26 10:37:47;;;;;;;0.80;0.80;;;25.90;65.90;;;;;;5033805;28;20045;-75
2022/06/26 10:43:11;;;;;;;1.77;1.63;;;26.10;61.80;;;;;;5038355;28;20077;-75
2022/06/26 10:45:38;;;;;;;0.75;0.75;;;26.20;62.10;;;;;;5031530;28;20351;-75
2022/06/26 10:48:17;;;;;;;3.03;2.47;;;26.20;61.00;;;;;;5029514;28;20072;-75
2022/06/26 10:50:45;;;;;;;5.32;4.28;;;26.20;62.10;;;;;;5014052;28;20280;-76
2022/06/26 10:53:19;;;;;;;3.15;1.52;;;26.20;62.10;;;;;;5033041;28;20021;-75
2022/06/26 10:55:53;;;;;;;2.38;1.98;;;26.30;61.00;;;;;;5026815;28;20084;-75
2022/06/26 10:58:27;;;;;;;5.07;3.13;;;26.50;63.20;;;;;;5024335;28;20021;-75
2022/06/26 11:00:56;;;;;;;3.75;1.60;;;26.60;64.20;;;;;;5040200;28;20028;-74
2022/06/26 11:03:22;;;;;;;1.40;1.10;;;26.70;64.70;;;;;;5040263;28;20040;-75
2022/06/26 11:05:59;;;;;;;1.45;1.00;;;26.70;60.50;;;;;;5041042;28;20021;-75
2022/06/26 11:08:39;;;;;;;1.42;1.13;;;26.80;60.30;;;;;;5041782;28;20032;-75
2022/06/26 11:11:17;;;;;;;52.47;7.93;;;26.90;60.00;;;;;;5020246;28;20018;-75
2022/06/26 11:13:52;;;;;;;1.42;1.00;;;26.90;61.80;;;;;;5020629;28;20037;-75
2022/06/26 11:16:18;;;;;;;1037.13;144.35;;;27.00;60.80;;;;;;5023096;28;20034;-74
2022/06/26 11:18:43;;;;;;;878.60;90.07;;;27.00;61.10;;;;;;5025752;28;20045;-74
2022/06/26 11:21:12;;;;;;;1045.45;133.57;;;27.00;59.40;;;;;;5029360;28;20026;-75
2022/06/26 11:23:38;;;;;;;931.80;93.20;;;27.20;59.60;;;;;;5036199;28;20056;-74
2022/06/26 11:26:08;;;;;;;435.63;46.55;;;27.30;60.20;;;;;;5041476;28;20029;-74
2022/06/26 11:28:41;;;;;;;428.90;43.97;;;27.50;60.20;;;;;;5029221;28;20029;-74
2022/06/26 11:31:28;;;;;;;192.57;50.53;;;27.60;62.60;;;;;;5053251;28;20021;-73
2022/06/26 11:33:55;;;;;;;198.02;64.47;;;27.70;57.90;;;;;;5057228;28;20018;-73
2022/06/26 11:36:22;;;;;;;368.13;93.28;;;27.80;58.50;;;;;;5055037;28;20077;-74
2022/06/26 11:38:55;;;;;;;325.15;295.77;;;27.90;57.80;;;;;;5056622;28;20025;-73
2022/06/26 11:41:22;;;;;;;153.55;138.85;;;28.00;57.00;;;;;;5055112;28;20021;-73
2022/06/26 11:43:53;;;;;;;57.95;22.98;;;28.10;58.30;;;;;;5045751;28;20033;-74
2022/06/26 11:46:19;;;;;;;2.13;0.93;;;28.20;57.00;;;;;;5044785;28;20025;-73
2022/06/26 11:48:48;;;;;;;0.90;0.90;;;28.30;55.40;;;;;;5044570;28;20339;-73
2022/06/26 11:51:13;;;;;;;1.20;1.10;;;28.30;56.60;;;;;;5060027;28;20049;-74
2022/06/26 11:53:45;;;;;;;8.15;2.85;;;28.30;58.60;;;;;;5044810;28;20021;-73
2022/06/26 11:56:23;;;;;;;1.20;1.10;;;28.30;56.50;;;;;;5043551;28;20026;-73
2022/06/26 11:58:50;;;;;;;3.03;1.88;;;28.40;59.40;;;;;;5059622;28;20092;-74
2022/06/26 12:01:16;;;;;;;1.05;0.98;;;28.60;57.90;;;;;;5011182;28;20079;-74
2022/06/26 12:03:47;;;;;;;1.33;1.00;;;28.70;56.60;;;;;;5044272;28;20324;-74
2022/06/26 12:06:40;;;;;;;1.67;1.08;;;28.80;55.30;;;;;;5044461;28;20057;-74
2022/06/26 12:09:16;;;;;;;1.08;0.98;;;29.10;57.30;;;;;;5039211;28;20038;-74
2022/06/26 12:11:42;;;;;;;1.20;1.10;;;29.20;57.00;;;;;;5044501;28;20026;-74
2022/06/26 12:14:12;;;;;;;1.45;1.20;;;29.30;54.20;;;;;;5043030;28;20060;-74
2022/06/26 12:17:00;;;;;;;1.92;1.27;;;29.40;54.50;;;;;;5038602;28;20340;-74
2022/06/26 12:19:26;;;;;;;1.20;1.10;;;29.40;56.00;;;;;;5052455;28;20028;-74
2022/06/26 12:21:53;;;;;;;1.75;1.05;;;29.40;57.90;;;;;;5051799;28;20029;-74
2022/06/26 12:24:20;;;;;;;1.40;1.30;;;29.40;56.80;;;;;;5043307;28;20138;-74
2022/06/26 12:26:46;;;;;;;1.48;1.10;;;29.50;55.00;;;;;;5053723;28;20043;-74
2022/06/26 12:29:15;;;;;;;1.10;1.00;;;29.60;55.20;;;;;;5051278;28;20316;-74
2022/06/26 12:31:42;;;;;;;1.00;0.98;;;29.60;54.80;;;;;;5042802;28;20328;-74
2022/06/26 12:34:08;;;;;;;1.23;0.80;;;29.70;55.20;;;;;;5042763;28;20017;-74
2022/06/26 12:36:34;;;;;;;1.35;1.00;;;29.80;56.50;;;;;;5041954;28;20021;-74
2022/06/26 12:39:00;;;;;;;2.25;1.30;;;29.90;56.40;;;;;;5058722;28;20029;-74
2022/06/26 12:41:25;;;;;;;;;;;30.00;58.90;;;;;;5059675;28;20063;-74
2022/06/26 12:43:57;;;;;;;2.40;1.40;;;30.20;56.90;;;;;;5043533;28;19908;-74
2022/06/26 12:46:22;;;;;;;1.00;1.00;;;30.30;57.20;;;;;;5041886;28;20057;-74
2022/06/26 12:48:48;;;;;;;1.77;1.15;;;30.40;54.60;;;;;;5036795;28;20051;-74
2022/06/26 12:51:14;;;;;;;1.05;1.00;;;30.50;56.50;;;;;;5034952;28;20075;-74
2022/06/26 12:53:41;;;;;;;1.20;1.10;;;30.70;55.90;;;;;;5042884;28;20279;-74
2022/06/26 12:56:07;;;;;;;1.40;1.30;;;30.90;52.10;;;;;;5025762;28;20048;-74
2022/06/26 12:58:32;;;;;;;1.10;1.10;;;31.00;53.60;;;;;;5042714;28;20036;-74
2022/06/26 13:00:59;;;;;;;1.38;1.27;;;31.20;55.00;;;;;;5043731;28;20126;-74
2022/06/26 13:03:25;;;;;;;1.30;1.20;;;31.40;56.90;;;;;;5041267;28;20017;-74
2022/06/26 13:05:51;;;;;;;1.25;1.15;;;31.60;55.80;;;;;;5043445;28;20347;-74